• Join FlightAware (Why Join?)
  • Login
  • US Flag 
04:12AM EST


 

Airport Tracker/Info


-or-


 

Live Flight TrackerFlight Track Log ✈ UAL5419 ✈ 23-Apr-2013 ✈ KMKE - KORD

Flight Track Log - Related Links

Times and Time Zones

All times are in EDT time to prevent confusion due to time zone crossing. See the UAL5419 flight status page for this flight to view local times or setup timezone preferences in your user account.

Time Position Orientation Groundspeed Altitude Reporting Facility
EDT Latitude Longitude Course Direction KTS MPH feet Rate Location/Type
03:59PM 42.9667 -87.8833 190° South 162 186 1,400  Level KMKE
04:00PM 42.9883 -87.8294 61° Northeast 254 292 3,800 2,220 Climbing Chicago Center
04:01PM 42.9561 -87.7417 117° Southeast 263 303 6,300 1,500 Climbing Chicago Center
04:02PM 42.8881 -87.7053 159° South 260 299 7,000 300 Climbing Chicago Center
04:03PM 42.4088 -87.9025 185° South  Level Estimated
04:03PM 42.8192 -87.6919 172° South 250 288 7,000  Level Chicago Center
04:04PM 42.3691 -87.9123 190° South  Level FlightAware Approximate
04:04PM 42.7506 -87.6775 171° South 250 288 7,000  Level Chicago Center
04:05PM 42.6661 -87.6619 172° South 259 298 7,000  Level Chicago Center
04:06PM 42.5947 -87.6469 171° South 260 299 7,000  Level Chicago Center
04:07PM 42.5242 -87.6342 172° South 257 296 7,000 -240 Level Chicago Center
04:08PM 42.4536 -87.6194 171° South 256 295 6,600 -480 Descending Chicago Center
04:09PM 42.3814 -87.6064 172° South 260 299 6,100 -300 Descending Chicago Center
04:10PM 42.3014 -87.5856 169° South 252 290 6,000 -60 Descending Chicago Center
04:11PM 42.2347 -87.5703 170° South 246 283 6,000 -240 Level Chicago Center
04:12PM 42.1778 -87.5564 170° South 214 246 5,500 -540 Descending Chicago Center
04:13PM 42.1294 -87.5158 148° Southeast 226 260 5,000 -540 Descending Chicago Center
04:14PM 42.1000 -87.4667 129° Southeast 235 270 4,700 -600 Descending Chicago TRACON
04:15PM 42.0667 -87.3833 118° Southeast 229 264 4,100 -360 Descending Chicago TRACON
04:16PM 42.0167 -87.3833 180° South 190 219 4,000 -60 Descending Chicago TRACON
04:17PM 42.0000 -87.4333 246° West 170 196 4,000  Level Chicago TRACON
04:18PM 42.0000 -87.5000 270° West 163 188 4,000  Level Chicago TRACON
04:19PM 42.0000 -87.5667 270° West 168 193 4,000  Level Chicago TRACON
04:20PM 42.0000 -87.6167 270° West 164 189 4,000  Level Chicago TRACON